Time;durP1;ratioP1;P1;durP2;ratioP2;P2;SDS_P1;SDS_P2;PMS_P1;PMS_P2;Temp;Humidity;BMP_temperature;BMP_pressure;BME280_temperature;BME280_humidity;BME280_pressure;Samples;Min_cycle;Max_cycle;Signal;HPM_P1;HPM_P2
2022/02/01 00:02:21;;;;;;;;;;;5.40;99.90;;;2.90;100.00;100884.28;5057319;28;20380;-85
2022/02/01 00:04:59;;;;;;;;;;;5.40;99.90;;;2.92;100.00;100866.19;5069315;28;19936;-85
2022/02/01 00:07:37;;;;;;;;;;;5.40;99.90;;;2.90;100.00;100869.97;5069427;28;20396;-85
2022/02/01 00:10:12;;;;;;;;;;;5.30;99.90;;;2.86;100.00;100852.41;5050873;28;19932;-84
2022/02/01 00:12:50;;;;;;;;;;;5.30;99.90;;;2.83;100.00;100869.63;5060481;28;19932;-85
2022/02/01 00:15:51;;;;;;;;;;;5.20;99.90;;;2.76;100.00;100881.88;5049812;28;19928;-85
2022/02/01 00:37:30;;;;;;;;;;;5.20;99.90;;;2.88;100.00;100918.50;5059717;28;19925;-85
2022/02/01 00:39:59;;;;;;;;;;;5.20;99.90;;;2.94;100.00;100901.00;5069215;28;19928;-85
2022/02/01 00:42:26;;;;;;;;;;;5.20;99.90;;;2.92;100.00;100897.59;5069123;28;19975;-85
2022/02/01 00:44:53;;;;;;;;;;;5.20;99.90;;;2.89;100.00;100906.78;5068161;28;19932;-85
2022/02/01 00:47:21;;;;;;;;;;;5.20;99.90;;;2.88;100.00;100905.06;5069157;28;19959;-85
2022/02/01 00:49:48;;;;;;;;;;;5.10;99.90;;;2.87;100.00;100891.72;5067873;28;19974;-84
2022/02/01 00:52:15;;;;;;;;;;;5.10;99.90;;;2.92;100.00;100919.09;5067641;28;20022;-85
2022/02/01 00:54:44;;;;;;;;;;;5.10;99.90;;;2.90;100.00;100910.31;5069477;28;19960;-85
2022/02/01 00:57:12;;;;;;;;;;;5.10;99.90;;;2.94;100.00;100899.16;5068977;28;19958;-85
2022/02/01 00:59:40;;;;;;;;;;;5.10;99.90;;;2.85;100.00;100899.91;5069137;28;19929;-85
2022/02/01 01:02:07;;;;;;;;;;;5.10;99.90;;;2.91;100.00;100910.19;5067601;28;19924;-84
2022/02/01 01:04:34;;;;;;;;;;;5.10;99.90;;;3.01;100.00;100894.16;5069139;28;20753;-85
2022/02/01 01:07:01;;;;;;;;;;;5.20;99.90;;;2.98;100.00;100897.09;5068953;28;20035;-85
2022/02/01 01:09:28;;;;;;;;;;;5.20;99.90;;;3.05;100.00;100922.50;5067423;28;20404;-84
2022/02/01 01:11:58;;;;;;;;;;;5.20;99.90;;;3.17;100.00;100946.66;5068711;28;20023;-84
2022/02/01 01:44:54;;;;;;;;;;;5.10;99.90;;;2.72;100.00;100920.69;5092815;28;19935;-85
2022/02/01 01:53:11;;;;;;;;;;;5.20;99.90;;;2.64;100.00;100929.38;5090348;28;19928;-85
2022/02/01 01:55:40;;;;;;;;;;;5.10;99.90;;;2.69;100.00;100919.13;5092758;28;19928;-85
2022/02/01 01:58:08;;;;;;;;;;;5.10;99.90;;;2.71;100.00;100927.06;5090601;28;20273;-85
2022/02/01 02:00:56;;;;;;;;;;;5.10;99.90;;;2.69;100.00;100943.31;5092765;28;19932;-86
2022/02/01 02:03:23;;;;;;;;;;;5.10;99.90;;;2.71;100.00;100949.41;5092295;28;19928;-85
2022/02/01 02:05:50;;;;;;;;;;;5.10;99.90;;;2.73;100.00;100952.84;5091395;28;20019;-85
2022/02/01 02:08:17;;;;;;;;;;;5.10;99.90;;;2.82;100.00;100959.31;5092700;28;20008;-84
2022/02/01 02:10:54;;;;;;;;;;;5.10;99.90;;;2.81;100.00;100951.38;5092973;28;19944;-85
2022/02/01 02:16:07;;;;;;;;;;;5.10;99.90;;;2.87;100.00;100934.75;5092426;28;19939;-85
2022/02/01 02:18:36;;;;;;;;;;;5.10;99.90;;;2.94;100.00;100949.41;5092154;28;20521;-85
2022/02/01 02:21:06;;;;;;;;;;;5.10;99.90;;;2.86;100.00;100952.72;5090941;28;20010;-84
2022/02/01 02:23:33;;;;;;;;;;;5.10;99.90;;;2.78;100.00;100956.97;5087160;28;19928;-86
2022/02/01 02:26:06;;;;;;;;;;;5.10;99.90;;;2.79;100.00;100953.31;5091767;28;19934;-85
2022/02/01 02:28:33;;;;;;;;;;;5.20;99.90;;;2.86;100.00;100949.19;5092003;28;19928;-86
2022/02/01 02:31:01;;;;;;;;;;;5.20;99.90;;;2.92;100.00;100943.28;5089951;28;19932;-86
2022/02/01 02:33:29;;;;;;;;;;;5.20;99.90;;;3.01;100.00;100961.38;5091860;28;20406;-85
2022/02/01 02:36:03;;;;;;;;;;;5.20;99.90;;;3.10;100.00;100971.38;5091418;28;19927;-86
2022/02/01 02:38:39;;;;;;;;;;;5.20;99.90;;;3.06;100.00;100956.44;5090979;28;19981;-86
2022/02/01 02:46:51;;;;;;;;;;;5.20;99.90;;;3.04;100.00;100962.94;5084777;28;19928;-85
2022/02/01 02:49:21;;;;;;;;;;;5.20;99.90;;;3.04;100.00;100958.41;5089720;28;20379;-86
2022/02/01 02:51:48;;;;;;;;;;;5.20;99.90;;;2.90;100.00;100954.16;5091437;28;19924;-85
2022/02/01 02:54:19;;;;;;;;;;;5.20;99.90;;;2.93;100.00;100956.63;5091126;28;19959;-85
2022/02/01 02:56:49;;;;;;;;;;;5.20;99.90;;;2.93;100.00;100955.75;5091042;28;19927;-85
2022/02/01 02:59:17;;;;;;;;;;;5.20;99.90;;;2.91;100.00;100957.69;5090353;28;20419;-85
2022/02/01 03:01:47;;;;;;;;;;;5.20;99.90;;;2.87;100.00;100951.72;5090976;28;19927;-85
2022/02/01 03:04:15;;;;;;;;;;;5.20;99.90;;;2.85;100.00;100956.34;5090803;28;21635;-85
2022/02/01 03:06:42;;;;;;;;;;;5.20;99.90;;;2.89;100.00;100956.97;5090821;28;19932;-85
2022/02/01 03:09:09;;;;;;;;;;;5.20;99.90;;;2.90;100.00;100956.00;5090504;28;19928;-86
2022/02/01 03:11:38;;;;;;;;;;;5.30;99.90;;;2.90;100.00;100953.31;5090901;28;20002;-85
2022/02/01 03:14:17;;;;;;;;;;;5.20;99.90;;;2.94;100.00;100952.94;5090630;28;20347;-86
2022/02/01 03:17:02;;;;;;;;;;;5.20;99.90;;;3.00;100.00;100946.22;5089257;28;19928;-86
2022/02/01 03:19:49;;;;;;;;;;;5.20;99.90;;;2.92;100.00;100933.38;5090298;28;20365;-85
2022/02/01 03:22:17;;;;;;;;;;;5.20;99.90;;;2.97;100.00;100946.47;5090483;28;19932;-86
2022/02/01 03:24:44;;;;;;;;;;;5.20;99.90;;;2.92;100.00;100935.22;5090491;28;19928;-85
2022/02/01 03:27:13;;;;;;;;;;;5.20;99.90;;;2.91;100.00;100925.44;5090560;28;20467;-85
2022/02/01 03:29:40;;;;;;;;;;;5.20;99.90;;;2.91;100.00;100928.13;5090015;28;19928;-86
2022/02/01 03:32:08;;;;;;;;;;;5.20;99.90;;;2.92;100.00;100921.78;5090364;28;19924;-85
2022/02/01 03:34:36;;;;;;;;;;;5.20;99.90;;;2.96;100.00;100912.50;5090342;28;19939;-86
2022/02/01 03:37:04;;;;;;;;;;;5.20;99.90;;;2.95;100.00;100908.06;5090339;28;20023;-85
2022/02/01 03:39:31;;;;;;;;;;;5.20;99.90;;;2.97;100.00;100916.03;5089976;28;19928;-85
2022/02/01 03:41:58;;;;;;;;;;;5.20;99.90;;;2.89;100.00;100908.59;5089031;28;20023;-86
2022/02/01 03:44:26;;;;;;;;;;;5.20;99.90;;;2.89;100.00;100922.03;5090064;28;20299;-85
2022/02/01 03:47:01;;;;;;;;;;;5.20;99.90;;;2.94;100.00;100931.44;5090263;28;20023;-86
2022/02/01 03:49:29;;;;;;;;;;;5.20;99.90;;;2.96;100.00;100915.19;5089254;28;19943;-85
2022/02/01 03:51:58;;;;;;;;;;;5.20;99.90;;;3.04;100.00;100922.63;5089400;28;20071;-86
2022/02/01 03:54:30;;;;;;;;;;;5.20;99.90;;;3.08;100.00;100916.84;5089359;28;20153;-85
2022/02/01 03:56:58;;;;;;;;;;;5.20;99.90;;;3.07;100.00;100915.16;5089847;28;20046;-85
2022/02/01 03:59:26;;;;;;;;;;;5.20;99.90;;;2.98;100.00;100918.59;5089504;28;20012;-85
2022/02/01 04:01:55;;;;;;;;;;;5.20;99.90;;;2.92;100.00;100913.72;5089812;28;19924;-85
2022/02/01 04:04:24;;;;;;;;;;;5.20;99.90;;;2.91;100.00;100907.50;5068297;28;19935;-85
2022/02/01 04:06:51;;;;;;;;;;;5.20;99.90;;;2.89;100.00;100901.41;5069951;28;19928;-85
2022/02/01 04:09:18;;;;;;;;;;;5.20;99.90;;;2.86;100.00;100898.94;5069481;28;19924;-86
2022/02/01 04:11:45;;;;;;;;;;;5.20;99.90;;;2.84;100.00;100897.38;5069719;28;20035;-85
2022/02/01 04:14:16;;;;;;;;;;;5.20;99.90;;;2.83;100.00;100906.41;5088811;28;19928;-85
2022/02/01 04:16:45;;;;;;;;;;;5.20;99.90;;;2.87;100.00;100913.22;5089909;28;19959;-85
2022/02/01 04:19:12;;;;;;;;;;;5.20;99.90;;;2.86;100.00;100904.31;5089687;28;19945;-85
2022/02/01 04:21:43;;;;;;;;;;;5.20;99.90;;;2.81;100.00;100893.09;5089388;28;20244;-85
2022/02/01 04:24:10;;;;;;;;;;;5.20;99.90;;;2.68;100.00;100887.00;5089519;28;19928;-85
2022/02/01 04:26:37;;;;;;;;;;;5.20;99.90;;;2.69;100.00;100889.56;5071830;28;20015;-85
2022/02/01 04:29:04;;;;;;;;;;;5.20;99.90;;;2.66;100.00;100895.19;5084727;28;19959;-85
2022/02/01 04:31:31;;;;;;;;;;;5.10;99.90;;;2.69;100.00;100892.25;5088078;28;19928;-85
2022/02/01 04:33:59;;;;;;;;;;;5.10;99.90;;;2.71;100.00;100884.06;5089432;28;20031;-85
2022/02/01 04:36:26;;;;;;;;;;;5.10;99.90;;;2.72;100.00;100867.84;5089307;28;20019;-85
2022/02/01 04:38:57;;;;;;;;;;;5.10;99.90;;;2.74;100.00;100860.50;5089022;28;19924;-85
2022/02/01 04:41:25;;;;;;;;;;;5.10;99.90;;;2.66;100.00;100880.91;5089166;28;19924;-86
2022/02/01 04:43:52;;;;;;;;;;;5.10;99.90;;;2.61;100.00;100867.84;5089277;28;20350;-85
2022/02/01 04:46:19;;;;;;;;;;;5.00;99.90;;;2.64;100.00;100848.78;5089279;28;19963;-85
2022/02/01 04:48:48;;;;;;;;;;;5.00;99.90;;;2.72;100.00;100848.16;5087795;28;19932;-85
2022/02/01 04:51:16;;;;;;;;;;;5.00;99.90;;;2.65;100.00;100845.13;5089299;28;20299;-85
2022/02/01 04:53:44;;;;;;;;;;;5.00;99.90;;;2.67;100.00;100859.28;5089318;28;19924;-85
2022/02/01 04:56:12;;;;;;;;;;;5.00;99.90;;;2.73;100.00;100856.09;5089154;28;20354;-85
2022/02/01 04:58:39;;;;;;;;;;;5.00;99.90;;;2.73;100.00;100850.72;5089050;28;19994;-84
2022/02/01 05:01:06;;;;;;;;;;;5.00;99.90;;;2.74;100.00;100873.94;5090376;28;20436;-85
2022/02/01 05:03:33;;;;;;;;;;;5.00;99.90;;;2.70;100.00;100875.16;5093346;28;19935;-85
2022/02/01 05:06:01;;;;;;;;;;;5.00;99.90;;;2.68;100.00;100863.66;5091649;28;19934;-85
2022/02/01 05:08:30;;;;;;;;;;;5.00;99.90;;;2.78;100.00;100865.59;5072698;28;20341;-85
2022/02/01 05:10:57;;;;;;;;;;;5.00;99.90;;;2.80;100.00;100861.81;5073177;28;19978;-85
2022/02/01 05:14:01;;;;;;;;;;;5.10;99.90;;;2.88;100.00;100880.84;5095558;28;19931;-85
2022/02/01 05:16:42;;;;;;;;;;;5.00;99.90;;;2.90;100.00;100886.13;5092317;28;20303;-85
2022/02/01 05:19:11;;;;;;;;;;;5.00;99.90;;;2.89;100.00;100884.41;5092683;28;19928;-85
2022/02/01 05:21:39;;;;;;;;;;;5.00;99.90;;;2.91;100.00;100882.44;5092847;28;20022;-85
2022/02/01 05:24:10;;;;;;;;;;;5.00;99.90;;;2.80;100.00;100877.06;5093173;28;19928;-84
2022/02/01 05:26:37;;;;;;;;;;;5.00;99.90;;;2.82;100.00;100888.56;5091585;28;19939;-83
2022/02/01 05:29:05;;;;;;;;;;;5.00;99.90;;;2.86;100.00;100890.88;5092560;28;19924;-83
2022/02/01 05:31:32;;;;;;;;;;;5.10;99.90;;;2.89;100.00;100860.19;5092957;28;19954;-86
2022/02/01 05:33:59;;;;;;;;;;;5.20;99.90;;;2.91;100.00;100877.06;5092672;28;19924;-84
2022/02/01 05:36:26;;;;;;;;;;;5.10;99.90;;;2.84;100.00;100875.88;5092760;28;19981;-85
2022/02/01 05:38:54;;;;;;;;;;;5.10;99.90;;;2.82;100.00;100851.81;5092172;28;19960;-85
2022/02/01 05:41:24;;;;;;;;;;;5.10;99.90;;;2.84;100.00;100849.00;5092835;28;20391;-85
2022/02/01 05:43:51;;;;;;;;;;;5.10;99.90;;;2.84;100.00;100817.59;5092200;28;19982;-83
2022/02/01 05:46:18;;;;;;;;;;;5.10;99.90;;;2.89;100.00;100809.13;5091216;28;20350;-84
2022/02/01 05:48:45;;;;;;;;;;;5.10;99.90;;;2.85;100.00;100805.84;5090277;28;20024;-84
2022/02/01 05:51:12;;;;;;;;;;;5.10;99.90;;;2.82;100.00;100794.47;5091062;28;20014;-83
2022/02/01 05:53:39;;;;;;;;;;;5.10;99.90;;;2.78;100.00;100787.66;5092399;28;19928;-82
2022/02/01 05:56:06;;;;;;;;;;;5.10;99.90;;;2.83;100.00;100815.03;5072011;28;20318;-83
2022/02/01 05:58:35;;;;;;;;;;;5.10;99.90;;;2.76;100.00;100812.00;5071690;28;20374;-82
2022/02/01 06:01:02;;;;;;;;;;;5.10;99.90;;;2.84;100.00;100812.22;5090224;28;19928;-79
2022/02/01 06:03:29;;;;;;;;;;;5.20;99.90;;;2.84;100.00;100797.94;5092248;28;19932;-79
2022/02/01 06:05:56;;;;;;;;;;;5.20;99.90;;;2.78;100.00;100790.34;5092211;28;20019;-79
2022/02/01 06:08:23;;;;;;;;;;;5.10;99.90;;;2.66;100.00;100781.47;5091806;28;20405;-80
2022/02/01 06:10:50;;;;;;;;;;;5.10;99.90;;;2.67;100.00;100778.66;5091648;28;20455;-79
2022/02/01 06:13:17;;;;;;;;;;;5.00;99.90;;;2.79;100.00;100765.19;5091690;28;19950;-83
2022/02/01 06:15:45;;;;;;;;;;;5.00;99.90;;;2.71;100.00;100776.59;5074097;28;19929;-83
2022/02/01 06:18:12;;;;;;;;;;;5.00;99.90;;;2.74;100.00;100785.25;5075424;28;20418;-83
2022/02/01 06:20:39;;;;;;;;;;;5.00;99.90;;;2.80;100.00;100780.31;5091738;28;19959;-83
2022/02/01 06:23:12;;;;;;;;;;;5.00;99.90;;;2.77;100.00;100777.91;5091793;28;19934;-83
2022/02/01 06:25:49;;;;;;;;;;;5.00;99.90;;;2.79;100.00;100775.94;5087390;28;20273;-83
2022/02/01 06:28:16;;;;;;;;;;;5.00;99.90;;;2.71;100.00;100774.75;5091611;28;20419;-82
2022/02/01 06:30:45;;;;;;;;;;;5.00;99.90;;;2.64;100.00;100773.53;5091900;28;19935;-81
2022/02/01 06:33:13;;;;;;;;;;;5.00;99.90;;;2.72;100.00;100781.84;5090465;28;20014;-82
2022/02/01 06:35:40;;;;;;;;;;;5.00;99.90;;;2.79;100.00;100775.94;5073873;28;19925;-82
2022/02/01 06:38:07;;;;;;;;;;;5.00;99.90;;;2.69;100.00;100771.31;5071240;28;19955;-82
2022/02/01 06:40:34;;;;;;;;;;;5.10;99.90;;;2.78;100.00;100782.28;5090971;28;20311;-82
2022/02/01 06:43:02;;;;;;;;;;;5.10;99.90;;;2.94;100.00;100774.66;5082520;28;19928;-82
2022/02/01 06:45:31;;;;;;;;;;;5.10;99.90;;;2.92;100.00;100784.69;5083836;28;20308;-82
2022/02/01 06:47:59;;;;;;;;;;;5.10;99.90;;;2.82;100.00;100776.53;5084946;28;20019;-82
2022/02/01 06:50:26;;;;;;;;;;;5.10;99.90;;;2.85;100.00;100764.69;5084781;28;20018;-82
2022/02/01 06:52:56;;;;;;;;;;;5.10;99.90;;;2.86;100.00;100761.03;5071292;28;19928;-82
2022/02/01 06:55:34;;;;;;;;;;;5.10;99.90;;;2.93;100.00;100746.94;5085699;28;19935;-82
2022/02/01 06:58:01;;;;;;;;;;;5.10;99.90;;;2.96;100.00;100751.19;5091163;28;19924;-82
2022/02/01 07:00:29;;;;;;;;;;;5.10;99.90;;;2.93;100.00;100736.19;5090979;28;19934;-82
2022/02/01 07:02:56;;;;;;;;;;;5.10;99.90;;;2.91;100.00;100737.28;5079840;28;19924;-82
2022/02/01 07:05:24;;;;;;;;;;;5.10;99.90;;;2.87;100.00;100744.75;5081667;28;20447;-82
2022/02/01 07:07:51;;;;;;;;;;;5.10;99.90;;;2.91;100.00;100748.03;5088924;28;19931;-82
2022/02/01 07:10:19;;;;;;;;;;;5.10;99.90;;;2.96;100.00;100728.84;5076105;28;20470;-82
2022/02/01 07:12:46;;;;;;;;;;;5.10;99.90;;;2.99;100.00;100731.25;5069996;28;20403;-82
2022/02/01 07:15:13;;;;;;;;;;;5.20;99.90;;;2.99;100.00;100715.13;5072429;28;19928;-82
2022/02/01 07:17:48;;;;;;;;;;;5.20;99.90;;;3.01;100.00;100726.59;5087766;28;20373;-82
2022/02/01 07:20:15;;;;;;;;;;;5.10;99.90;;;3.01;100.00;100740.91;5089805;28;19935;-82
2022/02/01 07:22:46;;;;;;;;;;;5.20;99.90;;;2.98;100.00;100732.25;5090029;28;20018;-83
2022/02/01 07:25:16;;;;;;;;;;;5.20;99.90;;;3.04;100.00;100743.31;5090111;28;19928;-84
2022/02/01 07:27:47;;;;;;;;;;;5.20;99.90;;;3.06;100.00;100745.88;5076902;28;19928;-84
2022/02/01 07:30:18;;;;;;;;;;;5.20;99.90;;;3.11;100.00;100749.88;5090133;28;20386;-83
2022/02/01 07:32:48;;;;;;;;;;;5.20;99.90;;;3.20;100.00;100747.38;5090353;28;19951;-83
2022/02/01 07:35:15;;;;;;;;;;;5.20;99.90;;;3.19;100.00;100740.31;5077384;28;19935;-83
2022/02/01 07:37:43;;;;;;;;;;;5.20;99.90;;;3.19;100.00;100730.41;5086265;28;20400;-83
2022/02/01 07:40:12;;;;;;;;;;;5.30;99.90;;;3.22;100.00;100743.59;5099608;22;19928;-82
2022/02/01 07:42:40;;;;;;;;;;;5.30;99.90;;;3.15;100.00;100733.50;5069369;28;19928;-82
2022/02/01 07:45:09;;;;;;;;;;;5.30;99.90;;;3.20;100.00;100737.50;5050513;28;20435;-82
2022/02/01 07:47:37;;;;;;;;;;;5.30;99.90;;;3.24;100.00;100725.50;5057292;28;20031;-82
2022/02/01 07:50:05;;;;;;;;;;;5.30;99.90;;;3.29;100.00;100730.47;5068268;28;19932;-82
2022/02/01 07:52:32;;;;;;;;;;;5.30;99.90;;;3.35;100.00;100729.94;5066960;28;19924;-82
2022/02/01 07:54:59;;;;;;;;;;;5.30;99.90;;;3.29;100.00;100725.97;5050278;28;20392;-82
2022/02/01 07:57:28;;;;;;;;;;;5.40;99.90;;;3.31;100.00;100717.72;5048880;28;19925;-82
2022/02/01 07:59:55;;;;;;;;;;;5.40;99.90;;;3.30;100.00;100713.34;5049640;28;19972;-82
2022/02/01 08:02:24;;;;;;;;;;;5.40;99.90;;;3.30;100.00;100716.88;5049902;28;20289;-82
2022/02/01 08:04:53;;;;;;;;;;;5.50;99.90;;;3.29;100.00;100714.31;5057106;28;19925;-82
2022/02/01 08:07:21;;;;;;;;;;;5.50;99.90;;;3.40;100.00;100708.88;5047700;28;19928;-82
2022/02/01 08:09:53;;;;;;;;;;;5.40;99.90;;;3.40;100.00;100700.78;5049380;28;19928;-82
2022/02/01 08:18:07;;;;;;;;;;;5.50;99.90;;;3.30;100.00;100700.75;5048766;28;19929;-82
2022/02/01 08:20:43;;;;;;;;;;;5.50;99.90;;;3.39;100.00;100688.34;5049785;28;20687;-82
2022/02/01 08:23:10;;;;;;;;;;;5.50;99.90;;;3.46;100.00;100673.34;5055109;28;19967;-82
2022/02/01 08:25:38;;;;;;;;;;;5.50;99.90;;;3.51;100.00;100664.88;5064360;28;19964;-82
2022/02/01 08:28:05;;;;;;;;;;;5.60;99.90;;;3.51;100.00;100671.13;5049625;28;19929;-82
2022/02/01 08:30:34;;;;;;;;;;;5.60;99.90;;;3.55;100.00;100662.78;5049488;28;19960;-82
2022/02/01 08:33:01;;;;;;;;;;;5.50;99.90;;;3.56;100.00;100657.28;5053438;28;20015;-82
2022/02/01 08:35:29;;;;;;;;;;;5.60;99.90;;;3.60;100.00;100657.81;5052001;28;19935;-82
2022/02/01 08:37:56;;;;;;;;;;;5.60;99.90;;;3.60;100.00;100647.06;5047906;28;19987;-82
2022/02/01 08:40:23;;;;;;;;;;;5.60;99.90;;;3.57;100.00;100641.97;5029880;28;20028;-82
2022/02/01 08:42:51;;;;;;;;;;;5.60;99.90;;;3.61;100.00;100624.56;5032134;28;19935;-82
2022/02/01 08:45:22;;;;;;;;;;;5.70;99.90;;;3.60;100.00;100637.16;5030559;28;20488;-82
2022/02/01 08:47:51;;;;;;;;;;;5.70;99.90;;;3.64;100.00;100632.38;5043772;28;20285;-82
2022/02/01 08:50:22;;;;;;;;;;;5.70;99.90;;;3.61;100.00;100617.31;5028599;28;20015;-82
2022/02/01 08:52:50;;;;;;;;;;;5.80;99.90;;;3.62;100.00;100620.91;5036647;28;20027;-82
2022/02/01 08:55:33;;;;;;;;;;;5.80;99.90;;;3.63;100.00;100615.34;5067304;28;19924;-81
2022/02/01 08:58:01;;;;;;;;;;;5.80;99.90;;;3.68;100.00;100612.25;5038351;28;20019;-81
2022/02/01 09:00:28;;;;;;;;;;;5.80;99.90;;;3.71;100.00;100606.59;5069179;28;19924;-81
2022/02/01 09:03:00;;;;;;;;;;;5.80;99.90;;;3.76;100.00;100590.03;5056202;28;19936;-82
2022/02/01 09:05:27;;;;;;;;;;;5.80;99.90;;;3.71;100.00;100590.44;5059506;28;20416;-81
2022/02/01 09:07:54;;;;;;;;;;;5.80;99.90;;;3.81;100.00;100580.56;5048673;28;19994;-81
2022/02/01 09:10:22;;;;;;;;;;;5.80;99.90;;;3.77;100.00;100573.75;5049033;28;19931;-81
2022/02/01 09:12:49;;;;;;;;;;;5.80;99.90;;;3.75;100.00;100573.03;5051010;28;19932;-81
2022/02/01 09:15:16;;;;;;;;;;;5.90;99.90;;;3.83;100.00;100569.66;5067281;28;20052;-81
2022/02/01 09:17:44;;;;;;;;;;;5.90;99.90;;;3.84;100.00;100558.72;5048947;28;19929;-81
2022/02/01 09:20:13;;;;;;;;;;;6.10;99.90;;;3.94;100.00;100557.88;5063942;28;20285;-81
2022/02/01 09:22:40;;;;;;;;;;;5.90;99.90;;;3.95;100.00;100540.75;5068835;28;19928;-81
2022/02/01 09:25:09;;;;;;;;;;;5.90;99.90;;;4.00;100.00;100522.31;5048671;28;20016;-81
2022/02/01 09:27:36;;;;;;;;;;;5.90;99.90;;;3.99;100.00;100517.94;5048707;28;19955;-80
2022/02/01 09:30:05;;;;;;;;;;;5.90;99.90;;;3.99;100.00;100521.47;5053322;28;19924;-80
2022/02/01 09:32:32;;;;;;;;;;;5.90;99.90;;;3.96;100.00;100518.22;5053945;28;19951;-80
2022/02/01 09:34:59;;;;;;;;;;;6.00;99.90;;;4.00;100.00;100503.47;5048791;28;20418;-80
2022/02/01 09:37:28;;;;;;;;;;;6.00;99.90;;;4.09;100.00;100492.72;5047153;28;20419;-80
2022/02/01 09:39:55;;;;;;;;;;;6.00;99.90;;;4.10;100.00;100480.09;5048468;28;19929;-80
2022/02/01 09:42:27;;;;;;;;;;;6.00;99.90;;;4.03;100.00;100487.88;5061070;28;20311;-79
2022/02/01 09:44:54;;;;;;;;;;;6.00;99.90;;;4.04;100.00;100477.97;5064968;28;19948;-80
2022/02/01 09:47:32;;;;;;;;;;;6.00;99.90;;;4.10;100.00;100477.41;5051946;28;19963;-80
2022/02/01 09:49:59;;;;;;;;;;;6.00;99.90;;;4.11;100.00;100463.78;5036934;28;19939;-80
2022/02/01 09:52:30;;;;;;;;;;;6.00;99.90;;;4.07;100.00;100456.13;5039203;28;19929;-80
2022/02/01 09:54:57;;;;;;;;;;;6.00;99.90;;;4.05;100.00;100450.88;5038791;28;19937;-80
2022/02/01 09:57:24;;;;;;;;;;;6.00;99.90;;;4.05;100.00;100444.66;5038703;28;19928;-80
2022/02/01 09:59:55;;;;;;;;;;;6.10;99.90;;;4.09;100.00;100446.06;5038626;28;19932;-80
2022/02/01 10:02:23;;;;;;;;;;;6.10;99.90;;;4.16;100.00;100444.50;5038592;28;19935;-80
2022/02/01 10:05:01;;;;;;;;;;;6.10;99.90;;;4.14;100.00;100438.41;5039040;28;20370;-80
2022/02/01 10:07:30;;;;;;;;;;;6.10;99.90;;;4.13;100.00;100427.78;5036296;28;19967;-79
2022/02/01 10:09:58;;;;;;;;;;;6.10;99.90;;;4.20;100.00;100421.66;5038802;28;19935;-80
2022/02/01 10:12:29;;;;;;;;;;;6.10;99.90;;;4.26;100.00;100394.13;5037197;28;19932;-80
2022/02/01 10:15:00;;;;;;;;;;;6.10;99.90;;;4.28;100.00;100394.84;5036804;28;19935;-80
2022/02/01 10:17:29;;;;;;;;;;;6.20;99.90;;;4.26;100.00;100375.28;5037539;28;19940;-80
2022/02/01 10:19:56;;;;;;;;;;;6.40;99.90;;;4.26;100.00;100369.03;5038366;28;19932;-80
2022/02/01 10:22:32;;;;;;;;;;;6.20;99.90;;;4.25;100.00;100378.97;5036937;28;19933;-79
2022/02/01 10:25:02;;;;;;;;;;;6.20;99.90;;;4.27;100.00;100376.97;5037902;28;19928;-80
2022/02/01 10:27:31;;;;;;;;;;;6.20;99.90;;;4.28;100.00;100370.63;5037247;28;19925;-80
2022/02/01 10:30:04;;;;;;;;;;;6.20;99.90;;;4.24;100.00;100371.03;5037360;28;19929;-80
2022/02/01 10:32:45;;;;;;;;;;;6.20;99.90;;;4.25;100.00;100362.81;5038478;28;20973;-80
2022/02/01 10:35:24;;;;;;;;;;;6.20;99.90;;;4.21;100.00;100377.56;5034782;28;19975;-80
2022/02/01 10:38:00;;;;;;;;;;;6.20;99.90;;;4.25;100.00;100362.81;5035025;28;20019;-80
2022/02/01 10:40:38;;;;;;;;;;;6.20;99.90;;;4.28;100.00;100358.97;5037108;28;19936;-80
2022/02/01 10:43:16;;;;;;;;;;;6.20;99.90;;;4.36;100.00;100352.84;5036819;28;19968;-80
2022/02/01 10:45:43;;;;;;;;;;;6.30;99.90;;;4.34;100.00;100335.97;5036154;28;19925;-80
2022/02/01 10:48:12;;;;;;;;;;;6.30;99.90;;;4.35;100.00;100343.06;5036704;28;20023;-80
2022/02/01 10:50:40;;;;;;;;;;;6.30;99.90;;;4.30;100.00;100339.00;5037001;28;19933;-80
2022/02/01 10:53:18;;;;;;;;;;;6.30;99.90;;;4.37;100.00;100327.59;5035016;28;21135;-80
2022/02/01 10:55:46;;;;;;;;;;;6.40;99.90;;;4.34;100.00;100327.91;5036076;28;20015;-80
2022/02/01 10:58:14;;;;;;;;;;;6.40;99.90;;;4.40;100.00;100319.22;5032390;28;19929;-80
2022/02/01 11:00:42;;;;;;;;;;;6.30;99.90;;;4.46;100.00;100310.56;5033070;28;20456;-80
2022/02/01 11:03:10;;;;;;;;;;;6.40;99.90;;;4.53;100.00;100308.09;5036705;28;19963;-80
2022/02/01 11:05:37;;;;;;;;;;;6.40;99.90;;;4.53;100.00;100310.78;5034477;28;19929;-80
2022/02/01 11:08:05;;;;;;;;;;;6.40;99.90;;;4.56;100.00;100305.94;5037737;28;19978;-80
2022/02/01 11:10:34;;;;;;;;;;;6.40;99.90;;;4.65;100.00;100298.81;5038781;28;19929;-80
2022/02/01 11:13:06;;;;;;;;;;;6.50;99.90;;;4.73;100.00;100293.50;5036003;28;20373;-80
2022/02/01 11:15:33;;;;;;;;;;;6.50;99.90;;;4.70;100.00;100281.19;5034188;28;20024;-80
2022/02/01 11:18:09;;;;;;;;;;;6.60;99.90;;;4.80;100.00;100281.09;5035245;28;19983;-80
2022/02/01 11:20:36;;;;;;;;;;;6.60;99.90;;;4.81;100.00;100272.00;5037277;28;20047;-79
2022/02/01 11:23:05;;;;;;;;;;;6.60;99.90;;;4.80;100.00;100270.31;5038863;28;20461;-83
2022/02/01 11:25:46;;;;;;;;;;;6.70;99.90;;;4.86;100.00;100268.88;5035857;28;19933;-82
2022/02/01 11:28:33;;;;;;;;;;;6.70;99.90;;;4.88;100.00;100269.56;5036482;28;19940;-83
2022/02/01 11:31:02;;;;;;;;;;;6.70;99.90;;;4.91;100.00;100247.66;5035468;28;19929;-83
2022/02/01 11:33:36;;;;;;;;;;;6.70;99.90;;;4.99;100.00;100253.16;5036992;28;19933;-83
2022/02/01 11:36:05;;;;;;;;;;;6.90;99.90;;;4.95;100.00;100251.75;5036268;28;19928;-83
2022/02/01 11:38:32;;;;;;;;;;;6.80;99.90;;;4.96;100.00;100229.16;5035185;28;19929;-83
2022/02/01 11:41:03;;;;;;;;;;;6.80;99.90;;;4.97;100.00;100232.72;5037484;28;20292;-83
2022/02/01 11:43:30;;;;;;;;;;;6.80;99.90;;;5.00;100.00;100216.22;5037242;28;19964;-83
2022/02/01 11:46:00;;;;;;;;;;;6.80;99.90;;;5.04;100.00;100210.34;5035930;28;19936;-83
2022/02/01 11:48:29;;;;;;;;;;;6.80;99.90;;;5.11;100.00;100207.06;5036119;28;20240;-83
2022/02/01 11:50:59;;;;;;;;;;;6.80;99.90;;;5.15;100.00;100208.44;5036252;28;19925;-83
2022/02/01 11:53:29;;;;;;;;;;;6.80;99.90;;;5.14;100.00;100204.03;5036776;28;20364;-83
2022/02/01 11:55:58;;;;;;;;;;;6.90;99.90;;;5.16;100.00;100200.19;5035241;28;20010;-83
2022/02/01 11:58:36;;;;;;;;;;;6.90;99.90;;;5.21;100.00;100213.19;5035671;28;20063;-83
2022/02/01 12:01:07;;;;;;;;;;;7.00;99.90;;;5.23;100.00;100200.38;5035894;28;20987;-83
2022/02/01 12:03:37;;;;;;;;;;;7.00;99.90;;;5.28;100.00;100188.13;5034299;28;20015;-83
2022/02/01 12:06:08;;;;;;;;;;;7.00;99.90;;;5.29;100.00;100186.25;5036384;28;20010;-83
2022/02/01 12:08:37;;;;;;;;;;;7.00;99.90;;;5.35;100.00;100177.56;5035197;28;19928;-83
2022/02/01 12:11:07;;;;;;;;;;;7.10;99.90;;;5.37;100.00;100172.84;5036200;28;20392;-83
2022/02/01 12:13:36;;;;;;;;;;;7.10;99.90;;;5.37;100.00;100166.56;5037293;28;20344;-83
2022/02/01 12:16:07;;;;;;;;;;;7.10;99.90;;;5.40;100.00;100148.22;5035336;28;19959;-83
2022/02/01 12:18:43;;;;;;;;;;;7.10;99.90;;;5.45;100.00;100145.06;5035848;28;20010;-83
2022/02/01 12:21:19;;;;;;;;;;;7.20;99.90;;;5.47;100.00;100149.28;5036234;28;19929;-83
2022/02/01 12:23:48;;;;;;;;;;;7.20;99.90;;;5.45;100.00;100140.50;5036487;28;19933;-83
2022/02/01 12:26:21;;;;;;;;;;;7.20;99.90;;;5.48;100.00;100137.47;5034580;28;19940;-83
2022/02/01 12:28:51;;;;;;;;;;;7.20;99.90;;;5.50;100.00;100134.59;5035622;28;19936;-83
2022/02/01 12:31:18;;;;;;;;;;;7.40;99.90;;;5.54;100.00;100129.72;5036584;28;20016;-83
2022/02/01 12:33:47;;;;;;;;;;;7.30;99.90;;;5.61;100.00;100122.69;5036608;28;20543;-83
2022/02/01 12:36:18;;;;;;;;;;;7.30;99.90;;;5.66;100.00;100123.06;5034358;28;19928;-83
2022/02/01 12:38:48;;;;;;;;;;;7.30;99.90;;;5.64;100.00;100122.38;5037449;28;20440;-83